Stonewall, Colorado
Current Conditions -  °F | °C
As of 8:09 PM on Saturday 20 Dec 2014 (Local Time) from KVTP Reporting Station
Broken Clouds Broken Clouds  
Wind Chill:   Ceiling: 11000
Heat Index: 21°   Visibility: 10mi
Dew Point: 12°   Wind: 16mph
Humidity: 68%   Direction: 190°S
Pressure: 29.99"   Gusts: 24mph
Location:  37.1566°N, 104.956°W
Report Text: KVTP 210309Z AUTO 19014G21KT 120V230 10SM BKN110 M06/M11 A2999 RMK AO2
Loading
Personal Weather Stations






























Interactive Weather Map New forecast layout! Learn more

10-Day Weather Forecast

Advertisements
Track Severe Weather on mobile